Time;durP1;ratioP1;P1;durP2;ratioP2;P2;SDS_P1;SDS_P2;PMS_P1;PMS_P2;Temp;Humidity;BMP_temperature;BMP_pressure;BME280_temperature;BME280_humidity;BME280_pressure;Samples;Min_cycle;Max_cycle;Signal;HPM_P1;HPM_P2
2022/07/14 00:01:38;;;;;;;;;8.50;8.50;27.50;31.50;;;;;;5094739;28;8776;-74
2022/07/14 00:04:04;;;;;;;;;5.25;5.25;27.50;31.40;;;;;;5093783;28;8760;-75
2022/07/14 00:06:31;;;;;;;;;8.00;8.00;27.40;31.50;;;;;;5090378;28;11405;-75
2022/07/14 00:08:57;;;;;;;;;8.00;8.00;27.40;31.50;;;;;;5087687;28;11417;-75
2022/07/14 00:11:22;;;;;;;;;9.00;8.00;27.30;31.60;;;;;;5074424;28;12049;-78
2022/07/14 00:13:48;;;;;;;;;8.25;8.25;27.30;31.90;;;;;;5056367;28;8778;-75
2022/07/14 00:16:14;;;;;;;;;6.75;6.75;27.40;31.90;;;;;;5074129;28;8797;-74
2022/07/14 00:18:43;;;;;;;;;7.00;7.00;27.30;31.90;;;;;;5074527;28;9436;-72
2022/07/14 00:21:13;;;;;;;;;8.75;8.00;27.30;32.10;;;;;;5054151;28;8799;-72
2022/07/14 00:23:40;;;;;;;;;7.50;7.50;27.30;32.20;;;;;;5054289;28;11457;-73
2022/07/14 00:26:06;;;;;;;;;6.00;5.25;27.30;32.00;;;;;;5072971;28;11444;-74
2022/07/14 00:28:33;;;;;;;;;8.00;8.00;27.20;32.10;;;;;;5074175;28;11469;-72
2022/07/14 00:31:03;;;;;;;;;8.00;8.00;27.20;32.10;;;;;;5073898;28;11422;-72
2022/07/14 00:33:30;;;;;;;;;6.67;6.67;27.10;32.30;;;;;;5073944;28;11439;-73
2022/07/14 00:35:56;;;;;;;;;8.33;7.33;27.10;32.50;;;;;;5073896;28;11535;-73
2022/07/14 00:38:22;;;;;;;;;9.00;8.00;27.00;32.50;;;;;;5056018;28;11497;-73
2022/07/14 00:40:48;;;;;;;;;9.00;9.00;26.90;32.80;;;;;;5053836;28;11427;-72
2022/07/14 00:43:14;;;;;;;;;9.00;8.67;26.90;32.90;;;;;;5053809;28;8767;-72
2022/07/14 00:45:40;;;;;;;;;7.50;7.50;26.90;32.80;;;;;;5053855;28;8889;-73
2022/07/14 00:48:06;;;;;;;;;7.00;6.67;27.00;32.40;;;;;;5053667;28;12283;-73
2022/07/14 00:50:33;;;;;;;;;5.50;5.50;27.00;32.50;;;;;;5052076;28;8775;-72
2022/07/14 00:53:05;;;;;;;;;7.00;7.00;26.80;32.70;;;;;;5052703;28;12115;-73
2022/07/14 00:55:31;;;;;;;;;10.00;10.00;26.80;32.90;;;;;;5053598;28;11454;-73
2022/07/14 00:57:57;;;;;;;;;4.00;4.00;26.90;32.90;;;;;;5052603;28;11473;-73
2022/07/14 01:00:22;;;;;;;;;8.50;8.50;27.00;32.70;;;;;;5053682;28;8771;-75
2022/07/14 01:02:48;;;;;;;;;8.00;8.00;26.90;32.70;;;;;;5053778;28;8767;-73
2022/07/14 01:05:14;;;;;;;;;5.50;5.50;27.00;32.60;;;;;;5052798;28;8755;-76
2022/07/14 01:07:40;;;;;;;;;11.00;10.00;27.00;32.70;;;;;;5053608;28;8806;-76
2022/07/14 01:10:07;;;;;;;;;7.75;7.75;27.00;32.60;;;;;;5053377;28;11435;-74
2022/07/14 01:12:33;;;;;;;;;7.25;7.25;27.00;32.60;;;;;;5053885;28;8775;-73
2022/07/14 01:14:59;;;;;;;;;8.00;8.00;27.00;32.70;;;;;;5053500;28;11437;-74
2022/07/14 01:17:25;;;;;;;;;5.00;5.00;27.00;32.60;;;;;;5057161;28;11470;-74
2022/07/14 01:19:51;;;;;;;;;7.75;7.50;27.00;32.60;;;;;;5066782;28;8814;-73
2022/07/14 01:22:17;;;;;;;;;9.75;9.75;27.00;32.70;;;;;;5076981;28;9508;-74
2022/07/14 01:24:42;;;;;;;;;8.00;8.00;26.80;32.90;;;;;;5076969;28;8774;-75
2022/07/14 01:27:08;;;;;;;;;9.25;9.25;26.80;33.00;;;;;;5077051;28;8809;-73
2022/07/14 01:29:34;;;;;;;;;7.00;7.00;26.60;33.30;;;;;;5076857;28;9409;-73
2022/07/14 01:32:00;;;;;;;;;8.25;8.25;26.60;33.30;;;;;;5059269;28;8781;-74
2022/07/14 01:34:27;;;;;;;;;8.00;8.00;26.60;33.40;;;;;;5077116;28;8836;-72
2022/07/14 01:36:53;;;;;;;;;9.25;8.50;26.60;33.20;;;;;;5076972;28;8777;-72
2022/07/14 01:39:18;;;;;;;;;8.50;8.50;26.60;33.20;;;;;;5076755;28;12063;-72
2022/07/14 01:41:45;;;;;;;;;9.75;8.00;26.50;33.40;;;;;;5076714;28;8762;-73
2022/07/14 01:44:12;;;;;;;;;7.75;7.00;26.50;33.30;;;;;;5076881;28;8754;-73
2022/07/14 01:46:38;;;;;;;;;8.75;8.75;26.30;34.50;;;;;;5058962;28;11386;-74
2022/07/14 01:49:05;;;;;;;;;8.50;8.50;26.30;33.80;;;;;;5076673;28;11453;-74
2022/07/14 01:51:31;;;;;;;;;7.25;6.25;26.30;33.70;;;;;;5076688;28;12097;-72
2022/07/14 01:53:57;;;;;;;;;7.00;6.75;26.40;33.40;;;;;;5076449;28;11401;-74
2022/07/14 01:56:22;;;;;;;;;7.00;7.00;26.50;33.40;;;;;;5076402;28;8774;-78
2022/07/14 01:58:48;;;;;;;;;7.00;7.00;26.50;33.50;;;;;;5076401;28;8795;-74
2022/07/14 02:04:02;;;;;;;;;8.00;8.00;26.60;33.30;;;;;;5076501;28;8872;-74
2022/07/14 02:06:29;;;;;;;;;7.67;7.67;26.60;33.20;;;;;;5076141;28;11511;-74
2022/07/14 02:08:55;;;;;;;;;6.00;6.00;26.60;33.00;;;;;;5075976;28;12220;-74
2022/07/14 02:14:05;;;;;;;;;8.00;8.00;26.70;32.90;;;;;;5076182;28;11989;-74
2022/07/14 02:16:31;;;;;;;;;8.00;8.00;26.60;33.00;;;;;;5076068;28;11458;-74
2022/07/14 02:18:58;;;;;;;;;5.00;5.00;26.60;33.00;;;;;;5076004;28;8928;-74
2022/07/14 02:21:24;;;;;;;;;9.33;7.33;26.70;32.90;;;;;;5076000;28;8869;-73
2022/07/14 02:23:51;;;;;;;;;8.00;7.00;26.70;34.00;;;;;;5075737;28;11429;-74
2022/07/14 02:26:17;;;;;;;;;8.00;8.00;26.60;33.10;;;;;;5075669;28;11409;-74
2022/07/14 02:28:43;;;;;;;;;7.33;7.33;26.60;33.10;;;;;;5057035;28;12082;-75
2022/07/14 02:31:10;;;;;;;;;9.00;9.00;26.50;33.20;;;;;;5075671;28;11390;-73
2022/07/14 02:33:36;;;;;;;;;7.33;7.33;26.50;33.30;;;;;;5076019;28;8761;-73
2022/07/14 02:36:02;;;;;;;;;10.00;10.00;26.40;33.30;;;;;;5075834;28;12049;-74
2022/07/14 02:38:28;;;;;;;;;9.33;8.67;26.40;33.60;;;;;;5075594;28;11386;-74
2022/07/14 02:40:54;;;;;;;;;9.00;9.00;26.30;33.60;;;;;;5075468;28;11519;-73
2022/07/14 02:43:20;;;;;;;;;8.75;8.75;26.20;33.60;;;;;;5075730;28;8782;-73
2022/07/14 02:45:46;;;;;;;;;10.00;9.00;26.30;33.40;;;;;;5075791;28;9356;-73
2022/07/14 02:48:11;;;;;;;;;9.67;9.00;26.30;33.50;;;;;;5075446;28;8856;-73
2022/07/14 02:50:37;;;;;;;;;8.67;8.67;26.40;33.50;;;;;;5075238;28;8778;-73
2022/07/14 02:53:06;;;;;;;;;9.33;9.33;26.30;33.50;;;;;;5075437;28;8762;-74
2022/07/14 02:55:35;;;;;;;;;10.00;10.00;26.30;33.50;;;;;;5075466;28;9536;-73
2022/07/14 02:58:01;;;;;;;;;8.67;8.67;26.20;33.60;;;;;;5075431;28;11401;-74
2022/07/14 03:00:27;;;;;;;;;9.33;9.00;26.30;33.80;;;;;;5075074;28;11491;-74
2022/07/14 03:02:54;;;;;;;;;8.33;8.33;26.30;33.60;;;;;;5075095;28;8766;-73
2022/07/14 03:05:20;;;;;;;;;9.00;9.00;26.30;33.70;;;;;;5075007;28;11407;-73
2022/07/14 03:07:46;;;;;;;;;10.25;10.00;26.40;33.70;;;;;;5074906;28;11450;-74
2022/07/14 03:10:12;;;;;;;;;9.67;9.67;26.30;33.70;;;;;;5074819;28;11457;-73
2022/07/14 03:12:37;;;;;;;;;7.33;7.33;26.30;33.80;;;;;;5075160;28;8777;-74
2022/07/14 03:15:04;;;;;;;;;9.00;9.00;26.30;33.90;;;;;;5075158;28;8788;-74
2022/07/14 03:17:30;;;;;;;;;9.67;9.67;26.30;33.90;;;;;;5074808;28;8790;-74
2022/07/14 03:19:55;;;;;;;;;7.67;7.33;26.30;33.90;;;;;;5074503;28;11575;-73
2022/07/14 03:22:21;;;;;;;;;9.00;9.00;26.40;34.10;;;;;;5074965;28;8885;-73
2022/07/14 03:24:47;;;;;;;;;9.33;9.33;26.30;34.10;;;;;;5074796;28;8857;-73
2022/07/14 03:27:13;;;;;;;;;9.67;9.67;26.30;34.30;;;;;;5074653;28;8790;-74
2022/07/14 03:29:42;;;;;;;;;10.33;10.33;26.30;34.30;;;;;;5074639;28;8770;-74
2022/07/14 03:32:08;;;;;;;;;10.67;10.67;26.30;34.40;;;;;;5074855;28;8754;-73
2022/07/14 03:34:34;;;;;;;;;17.33;17.00;26.30;34.40;;;;;;5074391;28;11420;-74
2022/07/14 03:36:59;;;;;;;;;14.00;14.00;26.20;34.50;;;;;;5074563;28;8847;-74
2022/07/14 03:39:26;;;;;;;;;13.33;13.33;26.20;34.50;;;;;;5074325;28;8858;-73
2022/07/14 03:41:52;;;;;;;;;18.67;14.33;26.20;34.60;;;;;;5074739;28;9408;-73
2022/07/14 03:44:18;;;;;;;;;16.00;16.00;26.10;34.70;;;;;;5074752;28;9415;-73
2022/07/14 03:46:44;;;;;;;;;23.67;20.33;26.10;34.80;;;;;;5074433;28;8842;-73
2022/07/14 03:49:10;;;;;;;;;21.33;21.00;26.10;34.80;;;;;;5074673;28;8837;-73
2022/07/14 03:51:45;;;;;;;;;18.00;18.00;26.10;34.80;;;;;;5074358;28;8781;-72
2022/07/14 03:54:11;;;;;;;;;19.00;16.33;26.10;34.90;;;;;;5074422;28;8765;-72
2022/07/14 03:56:37;;;;;;;;;16.00;16.00;26.10;35.00;;;;;;5074249;28;8766;-72
2022/07/14 03:59:04;;;;;;;;;13.00;11.33;26.10;35.00;;;;;;5074522;28;8774;-73
2022/07/14 04:01:30;;;;;;;;;13.33;13.33;26.10;34.90;;;;;;5074595;28;9469;-73
2022/07/14 04:03:56;;;;;;;;;17.33;14.00;26.10;35.00;;;;;;5074275;28;8777;-73
2022/07/14 04:06:22;;;;;;;;;12.00;12.00;26.10;35.10;;;;;;5056502;28;8805;-74
2022/07/14 04:08:47;;;;;;;;;12.33;12.33;26.10;35.00;;;;;;5074111;28;8801;-72
2022/07/14 04:11:14;;;;;;;;;11.00;11.00;26.00;35.10;;;;;;5074162;28;8769;-73
2022/07/14 04:13:40;;;;;;;;;13.33;13.33;26.00;35.20;;;;;;5074166;28;8766;-74
2022/07/14 04:16:06;;;;;;;;;13.00;13.00;26.00;35.30;;;;;;5074354;28;11469;-76
2022/07/14 04:18:32;;;;;;;;;13.00;11.67;26.00;35.40;;;;;;5074232;28;8794;-73
2022/07/14 04:20:57;;;;;;;;;11.67;11.67;26.00;35.50;;;;;;5073995;28;8794;-74
2022/07/14 04:23:23;;;;;;;;;12.33;12.33;26.00;36.70;;;;;;5074247;28;8843;-73
2022/07/14 04:25:49;;;;;;;;;14.00;12.33;26.00;35.70;;;;;;5074021;28;8850;-74
2022/07/14 04:28:16;;;;;;;;;11.33;10.33;26.00;35.80;;;;;;5073992;28;8805;-74
2022/07/14 04:30:42;;;;;;;;;13.67;12.00;26.00;35.90;;;;;;5074133;28;11497;-75
2022/07/14 04:33:11;;;;;;;;;15.00;14.00;26.00;35.70;;;;;;5073876;28;11438;-74
2022/07/14 04:35:38;;;;;;;;;9.33;9.00;25.90;35.80;;;;;;5073971;28;8759;-73
2022/07/14 04:38:03;;;;;;;;;10.67;10.33;25.90;35.70;;;;;;5073796;28;11515;-74
2022/07/14 04:40:29;;;;;;;;;13.33;12.00;25.90;35.90;;;;;;5073825;28;11469;-73
2022/07/14 04:42:55;;;;;;;;;11.00;11.00;25.90;36.00;;;;;;5073955;28;8746;-74
2022/07/14 04:45:22;;;;;;;;;12.67;12.67;26.00;36.10;;;;;;5074219;28;9422;-73
2022/07/14 04:47:49;;;;;;;;;13.67;13.67;26.00;36.20;;;;;;5073633;28;11489;-73
2022/07/14 04:52:59;;;;;;;;;13.00;12.00;25.90;36.70;;;;;;5077741;28;11386;-73
2022/07/14 04:55:25;;;;;;;;;13.00;11.00;25.90;36.50;;;;;;5077496;28;12179;-74
2022/07/14 04:57:51;;;;;;;;;11.67;11.33;25.90;36.40;;;;;;5077430;28;8835;-72
2022/07/14 05:00:16;;;;;;;;;14.33;12.00;26.00;36.70;;;;;;5077546;28;8786;-73
2022/07/14 05:02:43;;;;;;;;;12.00;12.00;26.00;36.80;;;;;;5077586;28;8855;-73
2022/07/14 05:05:09;;;;;;;;;11.00;11.00;26.00;36.90;;;;;;5077337;28;8772;-73
2022/07/14 05:07:34;;;;;;;;;12.00;12.00;26.00;37.10;;;;;;5077264;28;11470;-73
2022/07/14 05:10:00;;;;;;;;;10.00;10.00;25.90;37.40;;;;;;5077185;28;8774;-75
2022/07/14 05:12:27;;;;;;;;;10.33;9.00;25.50;37.90;;;;;;5077168;28;8774;-73
2022/07/14 05:14:53;;;;;;;;;13.00;12.67;25.70;37.90;;;;;;5077207;28;11447;-74
2022/07/14 05:17:19;;;;;;;;;8.00;7.33;25.70;37.90;;;;;;5077244;28;11648;-73
2022/07/14 05:19:49;;;;;;;;;11.67;11.00;25.60;37.80;;;;;;5076802;28;8894;-74
2022/07/14 05:22:15;;;;;;;;;10.00;9.67;25.70;38.00;;;;;;5077022;28;8777;-74
2022/07/14 05:24:41;;;;;;;;;8.00;8.00;25.70;38.30;;;;;;5081180;28;11434;-74
2022/07/14 05:27:07;;;;;;;;;10.00;10.00;25.70;38.20;;;;;;5076782;28;9577;-74
2022/07/14 05:29:33;;;;;;;;;11.33;11.33;25.80;38.10;;;;;;5076999;28;8761;-74
2022/07/14 05:31:58;;;;;;;;;17.00;17.00;25.90;38.00;;;;;;5076883;28;8762;-74
2022/07/14 05:34:24;;;;;;;;;18.00;15.33;26.00;38.10;;;;;;5076871;28;9474;-75
2022/07/14 05:36:50;;;;;;;;;18.00;17.00;26.00;37.90;;;;;;5079097;28;8918;-75
2022/07/14 05:39:16;;;;;;;;;9.67;9.67;26.10;38.90;;;;;;5096908;28;9426;-74
2022/07/14 05:41:41;;;;;;;;;11.33;11.33;26.20;38.00;;;;;;5096898;28;9391;-74
2022/07/14 05:44:08;;;;;;;;;11.67;11.67;26.30;38.10;;;;;;5095789;28;8783;-72
2022/07/14 05:46:33;;;;;;;;;12.67;12.67;26.20;38.20;;;;;;5077514;28;8779;-74
2022/07/14 05:49:00;;;;;;;;;13.00;13.00;26.10;38.00;;;;;;5084357;28;11608;-73
2022/07/14 05:51:26;;;;;;;;;12.33;12.33;26.20;37.90;;;;;;5088011;28;8895;-74
2022/07/14 05:53:52;;;;;;;;;10.00;10.00;26.00;38.10;;;;;;5085520;28;11599;-73
2022/07/14 05:56:18;;;;;;;;;12.00;10.33;25.80;38.10;;;;;;5096586;28;8780;-74
2022/07/14 05:58:45;;;;;;;;;10.67;10.67;25.80;38.10;;;;;;5096678;28;8810;-73
2022/07/14 06:01:12;;;;;;;;;11.00;10.33;25.70;38.60;;;;;;5096602;28;8732;-74
2022/07/14 06:03:37;;;;;;;;;10.00;10.00;25.70;38.30;;;;;;5091830;28;11447;-73
2022/07/14 06:06:08;;;;;;;;;10.00;10.00;25.60;38.30;;;;;;5094770;28;11572;-75
2022/07/14 06:08:35;;;;;;;;;9.67;9.67;25.70;38.50;;;;;;5096720;28;8842;-74
2022/07/14 06:11:00;;;;;;;;;9.00;9.00;25.80;38.40;;;;;;5096622;28;11594;-74
2022/07/14 06:13:28;;;;;;;;;8.00;8.00;25.80;38.40;;;;;;5096583;28;12224;-76
2022/07/14 06:15:57;;;;;;;;;10.00;8.67;26.00;38.10;;;;;;5090027;28;8775;-81
2022/07/14 06:18:24;;;;;;;;;8.75;8.75;26.20;37.60;;;;;;5096111;28;11481;-81
2022/07/14 06:20:50;;;;;;;;;7.67;7.67;26.20;36.80;;;;;;5095886;28;11569;-81
2022/07/14 06:23:16;;;;;;;;;12.00;10.00;26.00;36.90;;;;;;5096149;28;11452;-81
2022/07/14 06:25:42;;;;;;;;;9.00;9.00;25.90;36.90;;;;;;5096123;28;8775;-71
2022/07/14 06:28:08;;;;;;;;;12.67;11.67;25.80;37.20;;;;;;5095690;28;11497;-71
2022/07/14 06:30:35;;;;;;;;;13.67;12.00;25.80;37.50;;;;;;5096216;28;8785;-70
2022/07/14 06:33:01;;;;;;;;;8.00;7.00;25.60;37.80;;;;;;5095816;28;11538;-70
2022/07/14 06:35:27;;;;;;;;;14.67;13.33;25.60;38.00;;;;;;5094882;28;12070;-70
2022/07/14 06:37:54;;;;;;;;;10.33;10.33;25.70;37.90;;;;;;5094614;28;11422;-71
2022/07/14 06:40:21;;;;;;;;;7.00;7.00;25.80;37.60;;;;;;5094558;28;11427;-72
2022/07/14 06:42:47;;;;;;;;;21.00;19.33;25.80;37.60;;;;;;5094465;28;12138;-72
2022/07/14 06:45:13;;;;;;;;;11.00;10.33;25.80;37.90;;;;;;5093393;28;11486;-70
2022/07/14 06:47:40;;;;;;;;;11.00;10.67;25.90;37.10;;;;;;5093528;28;11469;-72
2022/07/14 06:50:07;;;;;;;;;7.00;7.00;25.80;36.90;;;;;;5075482;28;11432;-71
2022/07/14 06:52:33;;;;;;;;;8.75;8.75;25.70;37.10;;;;;;5094262;28;11409;-70
2022/07/14 06:55:03;;;;;;;;;7.75;7.75;25.80;37.20;;;;;;5094249;28;11401;-71
2022/07/14 06:57:29;;;;;;;;;7.50;7.50;25.90;37.50;;;;;;5092350;28;8768;-70
2022/07/14 06:59:55;;;;;;;;;7.00;7.00;25.80;37.40;;;;;;5091535;28;11403;-72
2022/07/14 07:02:21;;;;;;;;;8.50;8.00;25.80;37.60;;;;;;5094636;28;8772;-71
2022/07/14 07:06:43;;;;;;;;;8.25;8.25;25.90;37.50;;;;;;5095373;28;11385;-72
2022/07/14 07:07:34;;;;;;;;;11.50;11.00;25.80;37.60;;;;;;5094838;28;11448;-72
2022/07/14 07:10:00;;;;;;;;;7.25;7.25;26.00;37.70;;;;;;5095116;28;11494;-73
2022/07/14 07:12:28;;;;;;;;;10.00;9.00;25.90;37.70;;;;;;5095087;28;11469;-72
2022/07/14 07:14:54;;;;;;;;;7.50;7.50;26.00;38.00;;;;;;5094684;28;8790;-76
2022/07/14 07:17:20;;;;;;;;;11.75;9.50;26.10;37.50;;;;;;5094996;28;11425;-77
2022/07/14 07:19:45;;;;;;;;;9.25;9.25;26.00;37.50;;;;;;5094993;28;8815;-75
2022/07/14 07:22:11;;;;;;;;;9.00;9.00;25.90;38.00;;;;;;5095206;28;8764;-76
2022/07/14 07:24:37;;;;;;;;;11.00;11.00;26.00;38.00;;;;;;5095134;28;8763;-78
2022/07/14 07:27:03;;;;;;;;;10.00;10.00;25.90;38.00;;;;;;5094956;28;8782;-77
2022/07/14 07:29:29;;;;;;;;;10.33;10.33;26.20;37.40;;;;;;5095301;28;8850;-77
2022/07/14 07:31:54;;;;;;;;;11.67;11.67;26.50;37.20;;;;;;5090861;28;8778;-76
2022/07/14 07:34:20;;;;;;;;;10.67;10.00;26.40;37.70;;;;;;5080110;28;8774;-75
2022/07/14 07:36:46;;;;;;;;;17.00;13.00;26.40;38.00;;;;;;5074568;28;8758;-74
2022/07/14 07:39:12;;;;;;;;;15.00;15.00;26.50;38.00;;;;;;5085282;28;9538;-75
2022/07/14 07:41:39;;;;;;;;;12.00;11.00;26.40;38.00;;;;;;5076813;28;8764;-75
2022/07/14 07:44:06;;;;;;;;;11.50;11.00;26.60;37.80;;;;;;5065512;28;9543;-75
2022/07/14 07:46:32;;;;;;;;;11.00;10.25;26.70;36.80;;;;;;5074371;28;11971;-76
2022/07/14 07:48:58;;;;;;;;;11.50;11.00;26.50;37.60;;;;;;5074177;28;11473;-75
2022/07/14 07:51:24;;;;;;;;;10.00;10.00;26.40;37.90;;;;;;5082026;28;11578;-74
2022/07/14 07:53:50;;;;;;;;;8.50;8.50;26.50;38.00;;;;;;5085895;28;11585;-76
2022/07/14 07:56:15;;;;;;;;;7.75;7.75;26.70;38.00;;;;;;5086470;28;8876;-77
2022/07/14 07:58:41;;;;;;;;;7.00;7.00;26.90;37.40;;;;;;5079281;28;8793;-73
2022/07/14 08:01:08;;;;;;;;;10.00;10.00;26.70;37.80;;;;;;5056928;28;8847;-76
2022/07/14 08:03:34;;;;;;;;;8.50;8.50;26.70;38.00;;;;;;5073362;28;8786;-76
2022/07/14 08:06:00;;;;;;;;;9.25;9.25;26.90;37.70;;;;;;5076578;28;12123;-76
2022/07/14 08:08:26;;;;;;;;;9.50;9.50;27.00;37.10;;;;;;5082868;28;8790;-76
2022/07/14 08:10:52;;;;;;;;;12.75;10.00;26.80;37.50;;;;;;5077383;28;11447;-75
2022/07/14 08:13:18;;;;;;;;;9.75;9.75;26.80;37.70;;;;;;5094597;28;8777;-76
2022/07/14 08:15:44;;;;;;;;;10.00;9.50;26.70;38.30;;;;;;5094504;28;11521;-73
2022/07/14 08:18:10;;;;;;;;;7.50;7.50;26.70;37.90;;;;;;5094309;28;8806;-75
2022/07/14 08:20:37;;;;;;;;;9.50;9.50;26.90;38.10;;;;;;5094134;28;11446;-76
2022/07/14 08:23:03;;;;;;;;;9.00;8.00;26.60;38.20;;;;;;5081284;28;11435;-74
2022/07/14 08:25:29;;;;;;;;;11.25;11.25;26.80;38.10;;;;;;5080724;28;11398;-74
2022/07/14 08:27:55;;;;;;;;;8.75;8.75;27.10;37.20;;;;;;5093217;28;11409;-76
2022/07/14 08:30:21;;;;;;;;;8.00;8.00;26.90;37.10;;;;;;5096253;28;11413;-78
2022/07/14 08:32:49;;;;;;;;;10.00;10.00;27.10;37.90;;;;;;5097510;28;11514;-78
2022/07/14 08:35:17;;;;;;;;;11.00;9.50;27.20;37.60;;;;;;5098182;28;11423;-79
2022/07/14 08:37:43;;;;;;;;;9.00;8.00;27.00;37.50;;;;;;5098060;28;11415;-78
2022/07/14 08:40:12;;;;;;;;;5.50;5.50;26.90;37.80;;;;;;5098120;28;11403;-80
2022/07/14 08:42:41;;;;;;;;;9.25;9.25;27.00;37.70;;;;;;5098061;28;11402;-75
2022/07/14 08:45:13;;;;;;;;;11.25;11.25;27.20;37.10;;;;;;5097897;28;11389;-77
2022/07/14 08:47:41;;;;;;;;;9.75;9.00;26.90;37.30;;;;;;5097970;28;11448;-74
2022/07/14 08:50:10;;;;;;;;;9.00;7.25;27.10;37.00;;;;;;5097806;28;11488;-76
2022/07/14 08:52:36;;;;;;;;;9.00;9.00;27.00;36.10;;;;;;5098014;28;11499;-76
2022/07/14 08:55:06;;;;;;;;;9.50;9.25;26.90;36.30;;;;;;5098086;28;11391;-77
2022/07/14 08:57:32;;;;;;;;;7.50;7.50;27.10;36.30;;;;;;5097806;28;11402;-75
2022/07/14 08:59:57;;;;;;;;;11.50;11.00;27.40;36.20;;;;;;5097789;28;11397;-74
2022/07/14 09:02:23;;;;;;;;;12.25;12.25;27.60;36.10;;;;;;5097985;28;9514;-74
2022/07/14 09:04:49;;;;;;;;;7.25;7.25;27.70;35.90;;;;;;5097782;28;9390;-75
2022/07/14 09:07:35;;;;;;;;;10.75;10.75;27.80;36.20;;;;;;5097657;28;8855;-74
2022/07/14 09:10:14;;;;;;;;;8.50;8.50;27.80;36.60;;;;;;5079684;28;8768;-76
2022/07/14 09:12:44;;;;;;;;;10.25;10.25;27.80;35.90;;;;;;5097414;28;11425;-76
2022/07/14 09:18:11;;;;;;;;;11.25;11.25;28.00;35.90;;;;;;5097453;28;11430;-76
2022/07/14 09:20:38;;;;;;;;;7.75;7.75;28.10;35.80;;;;;;5096445;28;11456;-77
2022/07/14 09:23:06;;;;;;;;;8.75;8.75;28.10;36.00;;;;;;5096976;28;11377;-75
2022/07/14 09:25:37;;;;;;;;;9.50;9.50;28.00;35.90;;;;;;5073329;28;12053;-75
2022/07/14 09:28:05;;;;;;;;;11.25;11.00;27.90;35.70;;;;;;5087602;28;11568;-76
2022/07/14 09:30:31;;;;;;;;;8.25;8.25;28.00;35.30;;;;;;5089233;28;12056;-75
2022/07/14 09:33:02;;;;;;;;;9.75;9.75;28.10;35.10;;;;;;5094710;28;11457;-77
2022/07/14 09:35:34;;;;;;;;;10.00;10.00;28.00;35.30;;;;;;5095410;28;9650;-75
2022/07/14 09:38:12;;;;;;;;;9.25;9.25;28.20;34.90;;;;;;5094417;28;11437;-76
2022/07/14 09:40:38;;;;;;;;;10.50;10.50;28.20;34.90;;;;;;5092823;28;11366;-76
2022/07/14 09:43:06;;;;;;;;;10.25;10.25;28.10;35.00;;;;;;5094553;28;11446;-76
2022/07/14 09:45:36;;;;;;;;;10.00;10.00;28.10;35.00;;;;;;5092588;28;11354;-76
2022/07/14 09:48:03;;;;;;;;;10.00;9.00;28.30;34.90;;;;;;5094435;28;11451;-75
2022/07/14 09:50:39;;;;;;;;;8.75;8.75;28.50;34.70;;;;;;5094278;28;11411;-74
2022/07/14 09:53:13;;;;;;;;;11.50;11.50;28.60;34.60;;;;;;5094628;28;11374;-75
2022/07/14 09:55:41;;;;;;;;;7.50;7.50;28.60;34.00;;;;;;5092348;28;11429;-75
2022/07/14 09:58:08;;;;;;;;;8.00;8.00;28.70;33.40;;;;;;5094317;28;11376;-77
2022/07/14 10:00:35;;;;;;;;;12.00;12.00;28.80;33.50;;;;;;5089551;28;11498;-80
2022/07/14 10:03:03;;;;;;;;;11.50;11.50;28.90;33.60;;;;;;5087331;28;11471;-74
2022/07/14 10:05:34;;;;;;;;;12.75;12.75;28.90;32.60;;;;;;5087079;28;11452;-74
2022/07/14 10:08:05;;;;;;;;;12.00;12.00;28.90;32.30;;;;;;5085737;28;11500;-76
2022/07/14 10:10:35;;;;;;;;;8.25;8.00;29.00;33.00;;;;;;5086031;28;11449;-76
2022/07/14 10:13:04;;;;;;;;;9.75;9.75;29.10;31.70;;;;;;5091323;28;11392;-77
2022/07/14 10:15:30;;;;;;;;;11.50;11.50;29.10;31.80;;;;;;5093914;28;11391;-77
2022/07/14 10:17:59;;;;;;;;;10.75;10.75;29.10;30.90;;;;;;5094233;28;11441;-76
2022/07/14 10:20:27;;;;;;;;;8.80;8.80;29.20;31.80;;;;;;5014836;28;2178563;-75
2022/07/14 10:22:55;;;;;;;;;8.50;8.50;29.40;31.90;;;;;;5091957;28;8771;-75
2022/07/14 10:25:21;;;;;;;;;8.00;8.00;29.50;31.70;;;;;;5088532;28;11434;-78
2022/07/14 10:27:48;;;;;;;;;7.00;7.00;29.60;32.00;;;;;;5095999;28;11550;-77
2022/07/14 10:30:15;;;;;;;;;6.25;6.00;29.70;31.10;;;;;;5084887;28;11426;-78
2022/07/14 10:33:01;;;;;;;;;9.50;9.50;29.50;30.30;;;;;;5075875;28;11394;-76
2022/07/14 10:35:48;;;;;;;;;7.75;7.75;29.40;30.40;;;;;;5075862;28;11407;-74
2022/07/14 10:38:20;;;;;;;;;8.00;8.00;29.30;30.50;;;;;;5086126;28;11413;-76
2022/07/14 10:41:02;;;;;;;;;9.25;9.25;29.50;30.00;;;;;;5090033;28;11426;-76
2022/07/14 10:43:43;;;;;;;;;7.75;7.00;29.70;30.20;;;;;;5075449;28;11404;-77
2022/07/14 10:46:09;;;;;;;;;11.00;9.75;29.90;29.80;;;;;;5092949;28;11391;-82
2022/07/14 10:48:36;;;;;;;;;8.00;8.00;30.00;30.00;;;;;;5068392;28;11485;-81
2022/07/14 10:51:14;;;;;;;;;8.75;8.75;30.20;29.70;;;;;;5075110;28;8781;-79
2022/07/14 10:54:10;;;;;;;;;10.75;10.75;30.30;29.10;;;;;;5075183;28;11580;-80
2022/07/14 10:56:41;;;;;;;;;8.75;8.75;30.40;28.90;;;;;;5075505;28;11447;-79
2022/07/14 10:59:27;;;;;;;;;6.50;6.50;30.40;28.60;;;;;;5075221;28;11433;-79
2022/07/14 11:02:11;;;;;;;;;6.75;6.75;30.30;28.20;;;;;;5058201;28;11415;-77
2022/07/14 11:04:59;;;;;;;;;8.25;8.25;30.20;28.40;;;;;;5075392;28;11411;-78
2022/07/14 11:07:40;;;;;;;;;6.00;6.00;30.40;28.60;;;;;;5074966;28;11426;-77
2022/07/14 11:10:26;;;;;;;;;6.75;6.75;30.40;28.30;;;;;;5075243;28;11474;-75
2022/07/14 11:13:06;;;;;;;;;5.75;5.75;30.50;28.00;;;;;;5074928;28;11433;-77
2022/07/14 11:15:52;;;;;;;;;7.75;6.00;30.50;27.60;;;;;;5076745;28;11432;-77
2022/07/14 11:18:17;;;;;;;;;6.75;6.75;30.80;27.40;;;;;;5085983;28;11417;-79
2022/07/14 11:20:50;;;;;;;;;8.75;8.25;30.90;27.40;;;;;;5089422;28;12106;-80
2022/07/14 11:23:21;;;;;;;;;5.75;5.75;31.00;27.40;;;;;;5074858;28;8769;-78
2022/07/14 11:25:51;;;;;;;;;8.25;7.25;31.20;26.50;;;;;;5040833;28;11551;-79
2022/07/14 11:28:38;;;;;;;;;7.00;7.00;31.40;27.10;;;;;;5074701;28;11434;-76
2022/07/14 11:31:19;;;;;;;;;8.25;8.25;31.60;27.10;;;;;;5075783;28;12178;-77
2022/07/14 11:36:33;;;;;;;;;5.00;5.00;32.70;26.20;;;;;;5094887;28;11339;-77
2022/07/14 11:39:18;;;;;;;;;7.25;7.25;33.70;25.70;;;;;;5075574;28;11421;-78
2022/07/14 11:41:46;;;;;;;;;5.00;5.00;35.10;24.90;;;;;;5074649;28;11383;-76
2022/07/14 11:44:40;;;;;;;;;6.50;6.50;36.50;23.90;;;;;;5079222;28;11401;-77
2022/07/14 11:47:30;;;;;;;;;7.00;7.00;38.10;21.80;;;;;;5094554;28;11387;-78
2022/07/14 11:50:05;;;;;;;;;5.25;5.25;39.50;20.90;;;;;;5094536;28;11469;-77
2022/07/14 11:52:33;;;;;;;;;6.75;6.75;40.60;20.20;;;;;;5094542;28;11403;-77
2022/07/14 11:55:01;;;;;;;;;4.00;4.00;41.20;19.20;;;;;;5094596;28;12087;-79
2022/07/14 11:57:28;;;;;;;;;3.00;3.00;42.00;18.60;;;;;;5094612;28;11423;-78
2022/07/14 12:00:08;;;;;;;;;4.75;4.75;43.10;18.10;;;;;;5094311;28;11375;-77
2022/07/14 12:02:49;;;;;;;;;4.75;4.75;43.60;17.30;;;;;;5094920;28;11387;-75
2022/07/14 12:05:14;;;;;;;;;3.75;3.75;44.40;17.30;;;;;;5094439;28;12043;-75
2022/07/14 12:07:43;;;;;;;;;3.75;3.75;45.00;16.70;;;;;;5094336;28;11439;-76
2022/07/14 12:10:10;;;;;;;;;4.00;4.00;45.20;16.50;;;;;;5088110;28;8888;-77
2022/07/14 12:12:41;;;;;;;;;4.50;4.50;45.70;16.30;;;;;;5090885;28;11455;-76
2022/07/14 12:15:07;;;;;;;;;4.25;4.25;46.00;15.80;;;;;;5093885;28;12058;-77
2022/07/14 12:17:47;;;;;;;;;3.25;3.25;45.60;16.10;;;;;;5093499;28;11458;-75
2022/07/14 12:20:13;;;;;;;;;3.25;3.25;46.00;15.80;;;;;;5093281;28;11464;-75
2022/07/14 12:22:57;;;;;;;;;3.75;3.75;45.80;15.60;;;;;;5089781;28;11511;-76
2022/07/14 12:25:35;;;;;;;;;4.00;4.00;46.30;15.80;;;;;;5055216;28;11436;-77
2022/07/14 12:28:13;;;;;;;;;3.25;3.25;46.70;15.70;;;;;;5084592;28;11453;-75
2022/07/14 12:30:57;;;;;;;;;5.00;5.00;46.70;15.60;;;;;;5084929;28;11421;-78
2022/07/14 12:33:37;;;;;;;;;3.75;3.75;47.10;15.30;;;;;;5074010;28;11405;-78
2022/07/14 12:36:10;;;;;;;;;1.00;1.00;47.80;15.20;;;;;;5078471;28;11548;-76
2022/07/14 12:38:38;;;;;;;;;3.25;3.25;48.00;14.20;;;;;;5091992;28;11439;-75
2022/07/14 12:41:05;;;;;;;;;2.25;2.25;48.40;14.80;;;;;;5093308;28;11395;-75
2022/07/14 12:43:39;;;;;;;;;5.00;5.00;48.80;14.80;;;;;;5092090;28;11420;-76
2022/07/14 12:46:16;;;;;;;;;3.00;3.00;49.10;14.70;;;;;;5064799;28;11415;-73
2022/07/14 12:48:52;;;;;;;;;4.00;4.00;49.50;14.70;;;;;;5081827;28;11645;-74
2022/07/14 12:51:23;;;;;;;;;3.25;3.25;49.60;14.60;;;;;;5083002;28;11419;-74
2022/07/14 12:53:58;;;;;;;;;4.00;4.00;49.80;13.80;;;;;;5087640;28;11402;-74
2022/07/14 12:56:25;;;;;;;;;4.00;4.00;50.20;13.80;;;;;;5087074;28;12155;-74
2022/07/14 12:58:52;;;;;;;;;3.25;3.25;50.70;13.80;;;;;;5090445;28;11443;-80
2022/07/14 13:01:18;;;;;;;;;4.00;4.00;50.60;13.60;;;;;;5092458;28;11426;-81
2022/07/14 13:04:04;;;;;;;;;4.25;4.25;51.00;13.80;;;;;;5092749;28;11376;-78